< Typhoon 198723 1988 Season Typhoon 198802 >
Typhoon 198801 (ROY)
General InformationTrack Information on Google MapsDetailed Wind InformationList of All Images || Disaster Info.ResourceGoogle EarthGE AnimationAtom FeedGeoJSON
Detalied Best Track (Time Zone = UTC)
Year Month Day Hour Lat. Long. Pressure (hPa) Wind (kt) Class Image Chart
1988 1 7 00 5.5 174.5 1006 0 2 Image Chart
1988 1 7 06 6.3 174.0 1004 0 2 Image Chart
1988 1 7 12 6.8 173.4 1002 0 2 Image Chart
1988 1 7 18 7.2 172.7 998 0 2 Image Chart
1988 1 8 00 7.5 171.8 994 40 3 Image Chart
1988 1 8 06 7.7 170.5 992 45 3 Image Chart
1988 1 8 12 7.8 169.6 990 50 4 Image Chart
1988 1 8 18 8.0 168.2 985 50 4 Image Chart
1988 1 9 00 8.0 166.5 985 55 4 Image Chart
1988 1 9 06 8.1 165.3 980 60 4 Image Chart
1988 1 9 12 8.3 163.6 975 60 4 Image Chart
1988 1 9 18 8.4 161.8 965 70 5 Image Chart
1988 1 10 00 8.7 159.7 955 75 5 Image Chart
1988 1 10 06 9.3 157.6 950 80 5 Image Chart
1988 1 10 12 10.0 155.5 950 80 5 Image Chart
1988 1 10 18 10.5 153.6 950 80 5 Image Chart
1988 1 11 00 11.2 151.9 950 80 5 Image Chart
1988 1 11 06 11.7 150.5 950 80 5 Image Chart
1988 1 11 12 12.1 149.3 950 80 5 Image Chart
1988 1 11 18 12.8 148.0 950 80 5 Image Chart
1988 1 12 00 13.4 146.9 950 80 5 Image Chart
1988 1 12 06 13.9 145.8 940 85 5 Image Chart
1988 1 12 12 14.3 144.7 940 85 5 Image Chart
1988 1 12 18 14.7 143.6 940 85 5 Image Chart
1988 1 13 00 15.0 142.6 940 85 5 Image Chart
1988 1 13 06 15.3 141.8 940 85 5 Image Chart
1988 1 13 12 15.3 141.1 940 80 5 Image Chart
1988 1 13 18 14.8 140.3 945 80 5 Image Chart
1988 1 14 00 14.2 139.2 945 80 5 Image Chart
1988 1 14 06 13.4 137.7 945 80 5 Image Chart
1988 1 14 12 12.7 135.9 945 80 5 Image Chart
1988 1 14 18 12.4 134.1 940 80 5 Image Chart
1988 1 15 00 12.4 131.9 940 85 5 Image Chart
1988 1 15 06 12.6 129.8 945 85 5 Image Chart
1988 1 15 12 12.8 127.9 955 80 5 Image Chart
1988 1 15 18 13.0 126.0 965 80 5 Image Chart
1988 1 16 00 13.0 124.2 965 75 5 Image Chart
1988 1 16 06 13.1 123.2 975 65 5 Image Chart
1988 1 16 12 13.5 122.2 980 60 4 Image Chart
1988 1 16 18 13.6 121.2 990 50 4 Image Chart
1988 1 17 00 13.5 119.8 990 40 3 Image Chart
1988 1 17 06 13.6 117.9 990 45 3 Image Chart
1988 1 17 12 13.7 116.9 992 45 3 Image Chart
1988 1 17 18 13.6 115.9 994 40 3 Image Chart
1988 1 18 00 13.5 114.9 996 40 3 Image Chart
1988 1 18 06 13.4 114.0 1000 0 2 Image Chart
1988 1 18 12 13.0 113.5 1004 0 2 Image Chart
1988 1 18 18 12.5 113.0 1006 0 2 Image Chart
1988 1 19 00 12.0 113.0 1008 0 2 Image Chart
Japan Meteorological Agency Best Track Data | Correction Date : 1992-10-21
< Typhoon 198723 1988 Season Typhoon 198802 >

Help